sensor_id;sensor_type;location;lat;lon;timestamp;P1;durP1;ratioP1;P2;durP2;ratioP2
53367;SDS011;39271;45.618;20.024;2022-07-29T00:01:51;10.48;;;5.47;;
53367;SDS011;39271;45.618;20.024;2022-07-29T00:04:21;9.27;;;4.30;;
53367;SDS011;39271;45.618;20.024;2022-07-29T00:06:47;9.20;;;5.30;;
53367;SDS011;39271;45.618;20.024;2022-07-29T00:09:12;16.92;;;5.20;;
53367;SDS011;39271;45.618;20.024;2022-07-29T00:11:38;12.85;;;5.47;;
53367;SDS011;39271;45.618;20.024;2022-07-29T00:14:04;12.93;;;5.38;;
53367;SDS011;39271;45.618;20.024;2022-07-29T00:16:30;13.05;;;5.35;;
53367;SDS011;39271;45.618;20.024;2022-07-29T00:18:57;9.15;;;5.78;;
53367;SDS011;39271;45.618;20.024;2022-07-29T00:24:46;13.40;;;5.68;;
53367;SDS011;39271;45.618;20.024;2022-07-29T00:27:13;10.75;;;5.35;;
53367;SDS011;39271;45.618;20.024;2022-07-29T00:29:39;12.02;;;5.18;;
53367;SDS011;39271;45.618;20.024;2022-07-29T00:32:05;9.30;;;4.63;;
53367;SDS011;39271;45.618;20.024;2022-07-29T00:34:31;11.43;;;5.40;;
53367;SDS011;39271;45.618;20.024;2022-07-29T00:37:15;12.35;;;5.07;;
53367;SDS011;39271;45.618;20.024;2022-07-29T00:39:44;14.65;;;5.18;;
53367;SDS011;39271;45.618;20.024;2022-07-29T00:42:10;10.98;;;5.35;;
53367;SDS011;39271;45.618;20.024;2022-07-29T00:44:39;7.68;;;5.18;;
53367;SDS011;39271;45.618;20.024;2022-07-29T00:47:08;9.13;;;5.57;;
53367;SDS011;39271;45.618;20.024;2022-07-29T00:49:35;12.88;;;5.78;;
53367;SDS011;39271;45.618;20.024;2022-07-29T00:55:25;12.70;;;5.75;;
53367;SDS011;39271;45.618;20.024;2022-07-29T00:57:51;11.88;;;4.80;;
53367;SDS011;39271;45.618;20.024;2022-07-29T01:00:22;10.55;;;5.13;;
53367;SDS011;39271;45.618;20.024;2022-07-29T01:02:49;11.68;;;5.18;;
53367;SDS011;39271;45.618;20.024;2022-07-29T01:05:23;19.67;;;5.40;;
53367;SDS011;39271;45.618;20.024;2022-07-29T01:07:52;13.02;;;5.40;;
53367;SDS011;39271;45.618;20.024;2022-07-29T01:10:19;11.48;;;5.63;;
53367;SDS011;39271;45.618;20.024;2022-07-29T01:12:47;12.52;;;5.10;;
53367;SDS011;39271;45.618;20.024;2022-07-29T01:15:15;11.13;;;5.25;;
53367;SDS011;39271;45.618;20.024;2022-07-29T01:17:51;11.55;;;5.65;;
53367;SDS011;39271;45.618;20.024;2022-07-29T01:31:57;10.45;;;5.68;;
53367;SDS011;39271;45.618;20.024;2022-07-29T01:34:35;10.88;;;5.55;;
53367;SDS011;39271;45.618;20.024;2022-07-29T01:39:52;9.23;;;5.22;;
53367;SDS011;39271;45.618;20.024;2022-07-29T01:54:07;15.45;;;6.35;;
53367;SDS011;39271;45.618;20.024;2022-07-29T01:56:31;9.38;;;5.90;;
53367;SDS011;39271;45.618;20.024;2022-07-29T01:59:07;11.07;;;6.55;;
53367;SDS011;39271;45.618;20.024;2022-07-29T02:04:56;12.23;;;6.50;;
53367;SDS011;39271;45.618;20.024;2022-07-29T02:07:27;16.25;;;7.55;;
53367;SDS011;39271;45.618;20.024;2022-07-29T02:09:56;17.05;;;6.72;;
53367;SDS011;39271;45.618;20.024;2022-07-29T02:12:28;10.50;;;6.85;;
53367;SDS011;39271;45.618;20.024;2022-07-29T02:15:00;13.35;;;7.40;;
53367;SDS011;39271;45.618;20.024;2022-07-29T02:17:32;11.80;;;7.90;;
53367;SDS011;39271;45.618;20.024;2022-07-29T02:22:33;15.80;;;7.72;;
53367;SDS011;39271;45.618;20.024;2022-07-29T02:25:06;13.00;;;7.32;;
53367;SDS011;39271;45.618;20.024;2022-07-29T02:27:34;13.45;;;8.30;;
53367;SDS011;39271;45.618;20.024;2022-07-29T02:30:02;14.60;;;7.40;;
53367;SDS011;39271;45.618;20.024;2022-07-29T02:32:37;11.95;;;7.93;;
53367;SDS011;39271;45.618;20.024;2022-07-29T02:35:09;9.35;;;7.20;;
53367;SDS011;39271;45.618;20.024;2022-07-29T02:37:40;11.57;;;8.35;;
53367;SDS011;39271;45.618;20.024;2022-07-29T02:40:08;9.77;;;8.40;;
53367;SDS011;39271;45.618;20.024;2022-07-29T02:42:40;13.68;;;9.45;;
53367;SDS011;39271;45.618;20.024;2022-07-29T02:45:09;14.43;;;9.35;;
53367;SDS011;39271;45.618;20.024;2022-07-29T02:47:42;15.40;;;9.75;;
53367;SDS011;39271;45.618;20.024;2022-07-29T02:50:15;13.45;;;9.50;;
53367;SDS011;39271;45.618;20.024;2022-07-29T02:52:51;15.13;;;9.50;;
53367;SDS011;39271;45.618;20.024;2022-07-29T02:55:36;13.20;;;9.88;;
53367;SDS011;39271;45.618;20.024;2022-07-29T02:58:41;13.85;;;9.88;;
53367;SDS011;39271;45.618;20.024;2022-07-29T03:01:13;14.82;;;10.88;;
53367;SDS011;39271;45.618;20.024;2022-07-29T03:03:42;13.20;;;9.95;;
53367;SDS011;39271;45.618;20.024;2022-07-29T03:06:10;14.68;;;10.55;;
53367;SDS011;39271;45.618;20.024;2022-07-29T03:08:39;11.77;;;9.90;;
53367;SDS011;39271;45.618;20.024;2022-07-29T03:14:29;12.25;;;11.05;;
53367;SDS011;39271;45.618;20.024;2022-07-29T03:17:01;13.30;;;9.85;;
53367;SDS011;39271;45.618;20.024;2022-07-29T03:19:28;14.05;;;11.07;;
53367;SDS011;39271;45.618;20.024;2022-07-29T03:25:18;11.57;;;10.38;;
53367;SDS011;39271;45.618;20.024;2022-07-29T03:27:45;15.88;;;10.65;;
53367;SDS011;39271;45.618;20.024;2022-07-29T03:30:13;15.00;;;10.95;;
53367;SDS011;39271;45.618;20.024;2022-07-29T03:32:40;13.85;;;11.30;;
53367;SDS011;39271;45.618;20.024;2022-07-29T03:35:12;14.32;;;11.05;;
53367;SDS011;39271;45.618;20.024;2022-07-29T03:37:53;12.45;;;11.13;;
53367;SDS011;39271;45.618;20.024;2022-07-29T03:40:31;14.55;;;10.43;;
53367;SDS011;39271;45.618;20.024;2022-07-29T03:43:34;16.58;;;11.43;;
53367;SDS011;39271;45.618;20.024;2022-07-29T03:46:26;13.45;;;11.60;;
53367;SDS011;39271;45.618;20.024;2022-07-29T03:56:49;13.75;;;10.73;;
53367;SDS011;39271;45.618;20.024;2022-07-29T03:59:17;11.63;;;9.95;;
53367;SDS011;39271;45.618;20.024;2022-07-29T04:01:45;11.07;;;9.85;;
53367;SDS011;39271;45.618;20.024;2022-07-29T04:04:14;15.32;;;9.82;;
53367;SDS011;39271;45.618;20.024;2022-07-29T04:06:41;13.13;;;10.98;;
53367;SDS011;39271;45.618;20.024;2022-07-29T04:09:11;11.00;;;9.20;;
53367;SDS011;39271;45.618;20.024;2022-07-29T04:11:40;13.35;;;9.95;;
53367;SDS011;39271;45.618;20.024;2022-07-29T04:14:10;14.02;;;9.07;;
53367;SDS011;39271;45.618;20.024;2022-07-29T04:16:36;14.32;;;9.38;;
53367;SDS011;39271;45.618;20.024;2022-07-29T04:19:04;10.10;;;9.07;;
53367;SDS011;39271;45.618;20.024;2022-07-29T04:24:54;12.55;;;9.80;;
53367;SDS011;39271;45.618;20.024;2022-07-29T04:27:20;13.77;;;9.48;;
53367;SDS011;39271;45.618;20.024;2022-07-29T04:29:46;13.23;;;9.93;;
53367;SDS011;39271;45.618;20.024;2022-07-29T04:32:11;11.55;;;9.23;;
53367;SDS011;39271;45.618;20.024;2022-07-29T04:34:37;15.23;;;9.73;;
53367;SDS011;39271;45.618;20.024;2022-07-29T04:37:03;13.82;;;9.65;;
53367;SDS011;39271;45.618;20.024;2022-07-29T18:11:48;13.98;;;9.13;;
53367;SDS011;39271;45.618;20.024;2022-07-29T18:17:57;15.23;;;5.97;;
53367;SDS011;39271;45.618;20.024;2022-07-29T18:20:24;11.23;;;5.65;;
53367;SDS011;39271;45.618;20.024;2022-07-29T18:22:50;13.60;;;5.43;;
53367;SDS011;39271;45.618;20.024;2022-07-29T18:25:16;7.85;;;5.50;;
53367;SDS011;39271;45.618;20.024;2022-07-29T18:27:57;7.43;;;5.32;;
53367;SDS011;39271;45.618;20.024;2022-07-29T18:30:26;13.40;;;5.70;;
53367;SDS011;39271;45.618;20.024;2022-07-29T18:32:53;8.13;;;5.18;;
53367;SDS011;39271;45.618;20.024;2022-07-29T18:35:19;11.05;;;5.70;;
53367;SDS011;39271;45.618;20.024;2022-07-29T18:37:47;8.85;;;4.68;;
53367;SDS011;39271;45.618;20.024;2022-07-29T18:40:14;8.65;;;5.50;;
53367;SDS011;39271;45.618;20.024;2022-07-29T18:42:40;6.03;;;5.22;;
53367;SDS011;39271;45.618;20.024;2022-07-29T18:45:06;10.70;;;6.18;;
53367;SDS011;39271;45.618;20.024;2022-07-29T18:47:32;11.05;;;5.78;;
53367;SDS011;39271;45.618;20.024;2022-07-29T18:49:59;12.77;;;5.57;;
53367;SDS011;39271;45.618;20.024;2022-07-29T18:52:25;8.18;;;5.30;;
53367;SDS011;39271;45.618;20.024;2022-07-29T18:54:51;11.65;;;6.03;;
53367;SDS011;39271;45.618;20.024;2022-07-29T18:57:17;14.00;;;6.72;;
53367;SDS011;39271;45.618;20.024;2022-07-29T18:59:43;12.18;;;5.70;;
53367;SDS011;39271;45.618;20.024;2022-07-29T19:02:08;10.30;;;5.75;;
53367;SDS011;39271;45.618;20.024;2022-07-29T19:04:34;10.38;;;5.78;;
53367;SDS011;39271;45.618;20.024;2022-07-29T19:07:00;10.30;;;6.32;;
53367;SDS011;39271;45.618;20.024;2022-07-29T19:09:27;7.00;;;6.18;;
53367;SDS011;39271;45.618;20.024;2022-07-29T19:11:54;13.10;;;6.70;;
53367;SDS011;39271;45.618;20.024;2022-07-29T19:14:20;10.80;;;7.30;;
53367;SDS011;39271;45.618;20.024;2022-07-29T19:16:46;8.48;;;6.93;;
53367;SDS011;39271;45.618;20.024;2022-07-29T19:19:12;8.68;;;6.45;;
53367;SDS011;39271;45.618;20.024;2022-07-29T19:21:41;8.30;;;6.25;;
53367;SDS011;39271;45.618;20.024;2022-07-29T19:24:07;10.00;;;6.30;;
53367;SDS011;39271;45.618;20.024;2022-07-29T19:26:33;10.05;;;6.97;;
53367;SDS011;39271;45.618;20.024;2022-07-29T19:29:00;9.35;;;6.60;;
53367;SDS011;39271;45.618;20.024;2022-07-29T19:31:32;10.15;;;6.45;;
53367;SDS011;39271;45.618;20.024;2022-07-29T19:33:58;15.30;;;8.32;;
53367;SDS011;39271;45.618;20.024;2022-07-29T19:36:23;9.48;;;6.28;;
53367;SDS011;39271;45.618;20.024;2022-07-29T19:38:51;20.80;;;8.40;;
53367;SDS011;39271;45.618;20.024;2022-07-29T19:41:16;9.38;;;7.13;;
53367;SDS011;39271;45.618;20.024;2022-07-29T19:43:42;11.88;;;7.53;;
53367;SDS011;39271;45.618;20.024;2022-07-29T19:46:08;10.45;;;7.15;;
53367;SDS011;39271;45.618;20.024;2022-07-29T19:48:35;10.40;;;7.38;;
53367;SDS011;39271;45.618;20.024;2022-07-29T19:57:37;10.25;;;7.53;;
53367;SDS011;39271;45.618;20.024;2022-07-29T20:00:05;14.85;;;7.68;;
53367;SDS011;39271;45.618;20.024;2022-07-29T20:02:34;8.50;;;7.13;;
53367;SDS011;39271;45.618;20.024;2022-07-29T20:05:00;11.60;;;6.85;;
53367;SDS011;39271;45.618;20.024;2022-07-29T20:07:26;9.55;;;7.22;;
53367;SDS011;39271;45.618;20.024;2022-07-29T20:09:52;11.75;;;7.00;;
53367;SDS011;39271;45.618;20.024;2022-07-29T20:12:21;8.15;;;6.93;;
53367;SDS011;39271;45.618;20.024;2022-07-29T20:14:47;9.43;;;7.75;;
53367;SDS011;39271;45.618;20.024;2022-07-29T20:17:16;9.25;;;7.15;;
53367;SDS011;39271;45.618;20.024;2022-07-29T20:19:46;10.65;;;8.07;;
53367;SDS011;39271;45.618;20.024;2022-07-29T20:22:14;9.50;;;6.90;;
53367;SDS011;39271;45.618;20.024;2022-07-29T20:24:41;10.43;;;7.55;;
53367;SDS011;39271;45.618;20.024;2022-07-29T20:27:07;9.80;;;7.38;;
53367;SDS011;39271;45.618;20.024;2022-07-29T20:29:33;9.00;;;7.57;;
53367;SDS011;39271;45.618;20.024;2022-07-29T20:31:59;10.82;;;7.72;;
53367;SDS011;39271;45.618;20.024;2022-07-29T20:34:26;10.38;;;7.32;;
53367;SDS011;39271;45.618;20.024;2022-07-29T20:36:51;13.35;;;7.60;;
53367;SDS011;39271;45.618;20.024;2022-07-29T20:39:38;11.88;;;7.32;;
53367;SDS011;39271;45.618;20.024;2022-07-29T20:42:38;10.32;;;8.25;;
53367;SDS011;39271;45.618;20.024;2022-07-29T20:45:04;8.73;;;7.82;;
53367;SDS011;39271;45.618;20.024;2022-07-29T20:47:31;10.65;;;6.95;;
53367;SDS011;39271;45.618;20.024;2022-07-29T20:49:56;11.25;;;7.22;;
53367;SDS011;39271;45.618;20.024;2022-07-29T20:52:23;11.70;;;6.60;;
53367;SDS011;39271;45.618;20.024;2022-07-29T20:54:49;9.30;;;7.25;;
53367;SDS011;39271;45.618;20.024;2022-07-29T20:57:14;9.15;;;7.35;;
53367;SDS011;39271;45.618;20.024;2022-07-29T20:59:40;8.68;;;7.40;;
53367;SDS011;39271;45.618;20.024;2022-07-29T21:02:08;9.07;;;6.97;;
53367;SDS011;39271;45.618;20.024;2022-07-29T21:04:34;9.90;;;8.15;;
53367;SDS011;39271;45.618;20.024;2022-07-29T21:07:01;9.52;;;6.95;;
53367;SDS011;39271;45.618;20.024;2022-07-29T21:09:28;9.82;;;7.75;;
53367;SDS011;39271;45.618;20.024;2022-07-29T21:11:53;11.57;;;7.45;;
53367;SDS011;39271;45.618;20.024;2022-07-29T21:14:19;12.48;;;7.82;;
53367;SDS011;39271;45.618;20.024;2022-07-29T21:17:00;9.13;;;7.43;;
53367;SDS011;39271;45.618;20.024;2022-07-29T21:19:28;8.43;;;7.05;;
53367;SDS011;39271;45.618;20.024;2022-07-29T21:21:54;9.38;;;7.72;;
53367;SDS011;39271;45.618;20.024;2022-07-29T21:24:22;8.88;;;7.78;;
53367;SDS011;39271;45.618;20.024;2022-07-29T21:26:54;10.35;;;7.30;;
53367;SDS011;39271;45.618;20.024;2022-07-29T21:36:12;10.45;;;8.45;;
53367;SDS011;39271;45.618;20.024;2022-07-29T21:38:40;15.48;;;8.98;;
53367;SDS011;39271;45.618;20.024;2022-07-29T21:41:06;10.70;;;8.05;;
53367;SDS011;39271;45.618;20.024;2022-07-29T21:43:34;9.45;;;8.02;;
53367;SDS011;39271;45.618;20.024;2022-07-29T21:46:00;13.82;;;8.52;;
53367;SDS011;39271;45.618;20.024;2022-07-29T21:48:26;15.13;;;9.02;;
53367;SDS011;39271;45.618;20.024;2022-07-29T21:50:52;11.52;;;8.35;;
53367;SDS011;39271;45.618;20.024;2022-07-29T21:53:19;12.20;;;9.13;;
53367;SDS011;39271;45.618;20.024;2022-07-29T21:55:45;12.20;;;9.40;;
53367;SDS011;39271;45.618;20.024;2022-07-29T21:58:12;11.63;;;9.13;;
53367;SDS011;39271;45.618;20.024;2022-07-29T22:07:25;10.95;;;7.97;;
53367;SDS011;39271;45.618;20.024;2022-07-29T22:09:51;10.88;;;9.38;;
53367;SDS011;39271;45.618;20.024;2022-07-29T22:12:16;10.43;;;8.77;;
53367;SDS011;39271;45.618;20.024;2022-07-29T22:14:42;10.70;;;9.30;;
53367;SDS011;39271;45.618;20.024;2022-07-29T22:17:11;9.75;;;8.75;;
53367;SDS011;39271;45.618;20.024;2022-07-29T22:19:37;11.27;;;9.82;;
53367;SDS011;39271;45.618;20.024;2022-07-29T22:22:05;9.90;;;8.50;;
53367;SDS011;39271;45.618;20.024;2022-07-29T22:24:31;10.38;;;9.30;;
53367;SDS011;39271;45.618;20.024;2022-07-29T22:26:57;11.38;;;8.60;;
53367;SDS011;39271;45.618;20.024;2022-07-29T22:29:25;12.60;;;9.88;;
53367;SDS011;39271;45.618;20.024;2022-07-29T22:31:51;10.93;;;8.88;;
53367;SDS011;39271;45.618;20.024;2022-07-29T22:34:17;10.65;;;9.25;;
53367;SDS011;39271;45.618;20.024;2022-07-29T22:36:42;10.25;;;9.07;;
53367;SDS011;39271;45.618;20.024;2022-07-29T22:39:08;10.95;;;8.60;;
53367;SDS011;39271;45.618;20.024;2022-07-29T22:41:37;13.88;;;9.85;;
53367;SDS011;39271;45.618;20.024;2022-07-29T22:44:06;11.55;;;9.18;;
53367;SDS011;39271;45.618;20.024;2022-07-29T22:46:43;16.67;;;10.85;;
53367;SDS011;39271;45.618;20.024;2022-07-29T22:49:09;16.05;;;10.55;;
53367;SDS011;39271;45.618;20.024;2022-07-29T22:51:34;12.43;;;9.65;;
53367;SDS011;39271;45.618;20.024;2022-07-29T22:54:01;12.05;;;9.05;;
53367;SDS011;39271;45.618;20.024;2022-07-29T22:56:27;11.52;;;9.57;;
53367;SDS011;39271;45.618;20.024;2022-07-29T22:58:53;14.00;;;10.40;;
53367;SDS011;39271;45.618;20.024;2022-07-29T23:01:22;14.10;;;11.13;;
53367;SDS011;39271;45.618;20.024;2022-07-29T23:03:48;11.15;;;9.70;;
53367;SDS011;39271;45.618;20.024;2022-07-29T23:06:14;11.18;;;9.57;;
53367;SDS011;39271;45.618;20.024;2022-07-29T23:08:40;14.32;;;11.10;;
53367;SDS011;39271;45.618;20.024;2022-07-29T23:11:06;12.70;;;11.00;;
53367;SDS011;39271;45.618;20.024;2022-07-29T23:13:32;15.80;;;10.18;;
53367;SDS011;39271;45.618;20.024;2022-07-29T23:15:59;12.05;;;9.82;;
53367;SDS011;39271;45.618;20.024;2022-07-29T23:18:25;15.48;;;11.02;;
53367;SDS011;39271;45.618;20.024;2022-07-29T23:20:51;12.85;;;11.07;;
53367;SDS011;39271;45.618;20.024;2022-07-29T23:23:17;11.45;;;10.35;;
53367;SDS011;39271;45.618;20.024;2022-07-29T23:26:06;13.50;;;10.75;;
53367;SDS011;39271;45.618;20.024;2022-07-29T23:28:42;17.80;;;10.73;;
53367;SDS011;39271;45.618;20.024;2022-07-29T23:34:11;14.73;;;10.52;;
53367;SDS011;39271;45.618;20.024;2022-07-29T23:36:37;11.98;;;9.30;;
53367;SDS011;39271;45.618;20.024;2022-07-29T23:39:02;14.82;;;10.77;;
53367;SDS011;39271;45.618;20.024;2022-07-29T23:41:29;11.10;;;9.98;;
53367;SDS011;39271;45.618;20.024;2022-07-29T23:43:56;12.82;;;11.35;;
53367;SDS011;39271;45.618;20.024;2022-07-29T23:46:22;12.55;;;10.60;;
53367;SDS011;39271;45.618;20.024;2022-07-29T23:48:48;13.75;;;11.50;;
53367;SDS011;39271;45.618;20.024;2022-07-29T23:51:14;15.65;;;11.82;;
53367;SDS011;39271;45.618;20.024;2022-07-29T23:53:40;14.95;;;11.63;;
53367;SDS011;39271;45.618;20.024;2022-07-29T23:56:06;15.15;;;12.13;;
53367;SDS011;39271;45.618;20.024;2022-07-29T23:58:34;17.40;;;12.65;;
